SAA252 FAOR-FMMI
Flight info
| Callsign | SAA252 |
|---|---|
| Flight time | 2h 36m |
| Altitude | 33000 |
| Route | EXOBI1A EXOBI UT122 ORNAD/N0465F270 UG653 VMA UB536 SOPVI DCT TW TW1A |
| Aircraft | B763/H-SDE3FGHIM3RWXY/LB1 |
Departure
| Time | 2026-04-18 08:59 |
|---|---|
| Airport | O.R. Tambo International Airport (FAOR) |
Arrival
| Time | 2026-04-18 11:35 |
|---|---|
| Airport | Ivato International Airport (FMMI) |
| Time | Latitude | Longitude | Altitude | Speed | Heading |
|---|---|---|---|---|---|
| 2026-04-18 08:30 | -26.13290 | 28.23302 | 5566 ft | 0 kts | 277° |
| 2026-04-18 08:46 | -26.13292 | 28.23319 | 5566 ft | 3 kts | 277° |
| 2026-04-18 08:46 | -26.13294 | 28.23337 | 5565 ft | 1 kts | 276° |
| 2026-04-18 08:46 | -26.13294 | 28.23350 | 5565 ft | 1 kts | 267° |
| 2026-04-18 08:47 | -26.13293 | 28.23360 | 5564 ft | 1 kts | 251° |
| 2026-04-18 08:47 | -26.13290 | 28.23369 | 5563 ft | 1 kts | 235° |
| 2026-04-18 08:47 | -26.13285 | 28.23375 | 5563 ft | 1 kts | 220° |
| 2026-04-18 08:47 | -26.13279 | 28.23381 | 5563 ft | 1 kts | 206° |
| 2026-04-18 08:48 | -26.13272 | 28.23384 | 5562 ft | 1 kts | 192° |
| 2026-04-18 08:48 | -26.13265 | 28.23386 | 5562 ft | 0 kts | 188° |
| 2026-04-18 08:48 | -26.13264 | 28.23386 | 5562 ft | 0 kts | 187° |
| 2026-04-18 08:52 | -26.13265 | 28.23386 | 5561 ft | 0 kts | 187° |
| 2026-04-18 08:52 | -26.13289 | 28.23383 | 5562 ft | 5 kts | 185° |
| 2026-04-18 08:52 | -26.13358 | 28.23378 | 5563 ft | 14 kts | 183° |
| 2026-04-18 08:53 | -26.13472 | 28.23368 | 5566 ft | 18 kts | 186° |
| 2026-04-18 08:53 | -26.13618 | 28.23352 | 5567 ft | 24 kts | 186° |
| 2026-04-18 08:53 | -26.13790 | 28.23328 | 5569 ft | 23 kts | 188° |
| 2026-04-18 08:53 | -26.13934 | 28.23289 | 5570 ft | 19 kts | 195° |
| 2026-04-18 08:54 | -26.14057 | 28.23251 | 5571 ft | 17 kts | 196° |
| 2026-04-18 08:54 | -26.14165 | 28.23217 | 5575 ft | 15 kts | 196° |
| 2026-04-18 08:54 | -26.14263 | 28.23203 | 5576 ft | 13 kts | 173° |
| 2026-04-18 08:54 | -26.14358 | 28.23225 | 5575 ft | 14 kts | 166° |
| 2026-04-18 08:55 | -26.14459 | 28.23254 | 5575 ft | 16 kts | 165° |
| 2026-04-18 08:55 | -26.14570 | 28.23292 | 5575 ft | 12 kts | 149° |
| 2026-04-18 08:55 | -26.14584 | 28.23306 | 5575 ft | 0 kts | 129° |
| 2026-04-18 08:55 | -26.14590 | 28.23315 | 5574 ft | 2 kts | 129° |
| 2026-04-18 08:56 | -26.14600 | 28.23329 | 5574 ft | 0 kts | 125° |
| 2026-04-18 08:56 | -26.14606 | 28.23343 | 5574 ft | 5 kts | 108° |
| 2026-04-18 08:56 | -26.14618 | 28.23410 | 5571 ft | 7 kts | 77° |
| 2026-04-18 08:56 | -26.14591 | 28.23443 | 5570 ft | 4 kts | 22° |
| 2026-04-18 08:57 | -26.14547 | 28.23461 | 5568 ft | 0 kts | 20° |
| 2026-04-18 08:57 | -26.14532 | 28.23467 | 5567 ft | 10 kts | 19° |
| 2026-04-18 08:58 | -26.14280 | 28.23547 | 5559 ft | 68 kts | 15° |
| 2026-04-18 08:58 | -26.13613 | 28.23751 | 5545 ft | 126 kts | 15° |
| 2026-04-18 08:58 | -26.12590 | 28.24066 | 5531 ft | 177 kts | 13° |
| 2026-04-18 08:58 | -26.11276 | 28.24457 | 5800 ft | 207 kts | 14° |
| 2026-04-18 08:59 | -26.09810 | 28.24916 | 6294 ft | 225 kts | 14° |
| 2026-04-18 08:59 | -26.08452 | 28.25656 | 7240 ft | 225 kts | 41° |
| 2026-04-18 08:59 | -26.07606 | 28.27197 | 7939 ft | 243 kts | 77° |
| 2026-04-18 08:59 | -26.07649 | 28.29044 | 8802 ft | 250 kts | 102° |
| 2026-04-18 09:00 | -26.08097 | 28.30971 | 9434 ft | 266 kts | 103° |
| 2026-04-18 09:00 | -26.08600 | 28.33023 | 10076 ft | 282 kts | 104° |
| 2026-04-18 09:00 | -26.09157 | 28.35175 | 10710 ft | 299 kts | 105° |
| 2026-04-18 09:00 | -26.09767 | 28.37468 | 11350 ft | 317 kts | 105° |
| 2026-04-18 09:01 | -26.10416 | 28.39871 | 11977 ft | 336 kts | 105° |
| 2026-04-18 09:01 | -26.11120 | 28.42456 | 12646 ft | 354 kts | 106° |
| 2026-04-18 09:01 | -26.11849 | 28.45116 | 13390 ft | 369 kts | 106° |
| 2026-04-18 09:01 | -26.12571 | 28.47931 | 14124 ft | 383 kts | 101° |
| 2026-04-18 09:02 | -26.13172 | 28.50849 | 14837 ft | 396 kts | 98° |
| 2026-04-18 09:02 | -26.13388 | 28.53955 | 15557 ft | 406 kts | 86° |
| 2026-04-18 09:02 | -26.13229 | 28.57104 | 16361 ft | 414 kts | 82° |
| 2026-04-18 09:02 | -26.12912 | 28.60303 | 17164 ft | 422 kts | 80° |
| 2026-04-18 09:03 | -26.12506 | 28.63603 | 18008 ft | 430 kts | 79° |
| 2026-04-18 09:03 | -26.12054 | 28.66902 | 18847 ft | 437 kts | 78° |
| 2026-04-18 09:03 | -26.11573 | 28.70253 | 19687 ft | 443 kts | 77° |
| 2026-04-18 09:03 | -26.11080 | 28.73597 | 20520 ft | 448 kts | 77° |
| 2026-04-18 09:04 | -26.10570 | 28.77010 | 21361 ft | 451 kts | 77° |
| 2026-04-18 09:04 | -26.10052 | 28.80449 | 22214 ft | 455 kts | 77° |
| 2026-04-18 09:04 | -26.09521 | 28.83954 | 23085 ft | 457 kts | 77° |
| 2026-04-18 09:04 | -26.08991 | 28.87436 | 23956 ft | 459 kts | 77° |
| 2026-04-18 09:05 | -26.08460 | 28.90920 | 24734 ft | 462 kts | 77° |
| 2026-04-18 09:05 | -26.07918 | 28.94448 | 25321 ft | 470 kts | 77° |
| 2026-04-18 09:05 | -26.07364 | 28.98048 | 25931 ft | 476 kts | 77° |
| 2026-04-18 09:05 | -26.06800 | 29.01708 | 26540 ft | 482 kts | 77° |
| 2026-04-18 09:06 | -26.06232 | 29.05390 | 27144 ft | 488 kts | 77° |
| 2026-04-18 09:06 | -26.05655 | 29.09103 | 27749 ft | 493 kts | 77° |
| 2026-04-18 09:06 | -26.05068 | 29.12884 | 28354 ft | 498 kts | 77° |
| 2026-04-18 09:06 | -26.04680 | 29.16712 | 28955 ft | 505 kts | 85° |
| 2026-04-18 09:07 | -26.04562 | 29.20642 | 29583 ft | 508 kts | 84° |
| 2026-04-18 09:07 | -26.04416 | 29.24541 | 30202 ft | 511 kts | 84° |
| 2026-04-18 09:07 | -26.04271 | 29.28481 | 30818 ft | 514 kts | 84° |
| 2026-04-18 09:07 | -26.04119 | 29.32506 | 31452 ft | 516 kts | 84° |
| 2026-04-18 09:08 | -26.03970 | 29.36475 | 32077 ft | 517 kts | 84° |
| 2026-04-18 09:08 | -26.03817 | 29.40465 | 32705 ft | 518 kts | 84° |
| 2026-04-18 09:08 | -26.03662 | 29.44474 | 33223 ft | 519 kts | 84° |
| 2026-04-18 09:08 | -26.03506 | 29.48464 | 33191 ft | 518 kts | 84° |
| 2026-04-18 09:09 | -26.03192 | 29.56436 | 33218 ft | 516 kts | 84° |
| 2026-04-18 09:09 | -26.02872 | 29.64448 | 33227 ft | 519 kts | 84° |
| 2026-04-18 09:10 | -26.02552 | 29.72400 | 33218 ft | 517 kts | 84° |
| 2026-04-18 09:10 | -26.02226 | 29.80355 | 33218 ft | 517 kts | 84° |
| 2026-04-18 09:11 | -26.01891 | 29.88368 | 33224 ft | 517 kts | 84° |
| 2026-04-18 09:11 | -26.01557 | 29.96308 | 33227 ft | 515 kts | 84° |
| 2026-04-18 09:12 | -26.01216 | 30.04309 | 33229 ft | 515 kts | 84° |
| 2026-04-18 09:12 | -26.00871 | 30.12279 | 33232 ft | 522 kts | 84° |
| 2026-04-18 09:13 | -26.00516 | 30.20397 | 33226 ft | 528 kts | 84° |
| 2026-04-18 09:13 | -26.00157 | 30.28533 | 33221 ft | 526 kts | 84° |
| 2026-04-18 09:14 | -25.99794 | 30.36592 | 33210 ft | 525 kts | 84° |
| 2026-04-18 09:14 | -25.99427 | 30.44685 | 33184 ft | 527 kts | 84° |
| 2026-04-18 09:15 | -26.00943 | 30.68134 | 33152 ft | 512 kts | 64° |
| 2026-04-18 09:15 | -25.98741 | 30.75672 | 33131 ft | 517 kts | 75° |
| 2026-04-18 09:16 | -25.97851 | 30.83725 | 33111 ft | 523 kts | 82° |
| 2026-04-18 09:16 | -25.97325 | 30.91805 | 33099 ft | 524 kts | 83° |
| 2026-04-18 09:17 | -25.96892 | 30.99867 | 33108 ft | 522 kts | 83° |
| 2026-04-18 09:17 | -25.96480 | 31.07989 | 33100 ft | 522 kts | 83° |
| 2026-04-18 09:18 | -25.96075 | 31.16063 | 33079 ft | 523 kts | 83° |
| 2026-04-18 09:18 | -25.95667 | 31.24116 | 33061 ft | 520 kts | 83° |
| 2026-04-18 09:19 | -25.95256 | 31.32152 | 33032 ft | 522 kts | 83° |
| 2026-04-18 09:19 | -25.94843 | 31.40181 | 33014 ft | 521 kts | 83° |
| 2026-04-18 09:20 | -25.94421 | 31.48267 | 32976 ft | 521 kts | 83° |
| 2026-04-18 09:20 | -25.93994 | 31.56349 | 32959 ft | 522 kts | 83° |
| 2026-04-18 09:21 | -25.93567 | 31.64383 | 32951 ft | 520 kts | 83° |
| 2026-04-18 09:21 | -25.93133 | 31.72442 | 32921 ft | 520 kts | 82° |
| 2026-04-18 09:22 | -25.92697 | 31.80458 | 32934 ft | 521 kts | 82° |
| 2026-04-18 09:22 | -25.92256 | 31.88501 | 32930 ft | 521 kts | 82° |
| 2026-04-18 09:23 | -25.91810 | 31.96529 | 32938 ft | 520 kts | 82° |
| 2026-04-18 09:23 | -25.91357 | 32.04593 | 32942 ft | 521 kts | 82° |
| 2026-04-18 09:24 | -25.90902 | 32.12640 | 32925 ft | 522 kts | 82° |
| 2026-04-18 09:24 | -25.90442 | 32.20685 | 32911 ft | 521 kts | 82° |
| 2026-04-18 09:25 | -25.89978 | 32.28722 | 32892 ft | 520 kts | 82° |
| 2026-04-18 09:25 | -25.89511 | 32.36738 | 32898 ft | 520 kts | 82° |
| 2026-04-18 09:26 | -25.89037 | 32.44779 | 32895 ft | 521 kts | 82° |
| 2026-04-18 09:26 | -25.88561 | 32.52806 | 32899 ft | 521 kts | 82° |
| 2026-04-18 09:27 | -25.88078 | 32.60873 | 32897 ft | 521 kts | 82° |
| 2026-04-18 09:27 | -25.87593 | 32.68894 | 32878 ft | 520 kts | 82° |
| 2026-04-18 09:28 | -25.87102 | 32.76915 | 32875 ft | 521 kts | 82° |
| 2026-04-18 09:28 | -25.86604 | 32.84958 | 32868 ft | 520 kts | 81° |
| 2026-04-18 09:29 | -25.85038 | 32.92634 | 32884 ft | 507 kts | 62° |
| 2026-04-18 09:29 | -25.81550 | 32.99312 | 32880 ft | 491 kts | 44° |
| 2026-04-18 09:30 | -25.76931 | 33.04844 | 32875 ft | 491 kts | 46° |
| 2026-04-18 09:30 | -25.72999 | 33.11175 | 32877 ft | 499 kts | 52° |
| 2026-04-18 09:31 | -25.69416 | 33.17808 | 32878 ft | 499 kts | 54° |
| 2026-04-18 09:31 | -25.65948 | 33.24490 | 32881 ft | 499 kts | 55° |
| 2026-04-18 09:32 | -25.62520 | 33.31175 | 32878 ft | 500 kts | 55° |
| 2026-04-18 09:32 | -25.59081 | 33.37894 | 32879 ft | 499 kts | 55° |
| 2026-04-18 09:33 | -25.55630 | 33.44633 | 32882 ft | 499 kts | 55° |
| 2026-04-18 09:33 | -25.52214 | 33.51297 | 32888 ft | 500 kts | 55° |
| 2026-04-18 09:34 | -25.48751 | 33.58044 | 32889 ft | 500 kts | 56° |
| 2026-04-18 09:34 | -25.45309 | 33.64741 | 32889 ft | 499 kts | 55° |
| 2026-04-18 09:35 | -25.41862 | 33.71437 | 32881 ft | 499 kts | 55° |
| 2026-04-18 09:35 | -25.38423 | 33.78109 | 32883 ft | 498 kts | 55° |
| 2026-04-18 09:36 | -25.34979 | 33.84778 | 32879 ft | 496 kts | 55° |
| 2026-04-18 09:36 | -25.31535 | 33.91439 | 32882 ft | 499 kts | 55° |
| 2026-04-18 09:37 | -25.28111 | 33.98127 | 32887 ft | 501 kts | 59° |
| 2026-04-18 09:37 | -25.25101 | 34.05100 | 32899 ft | 502 kts | 59° |
| 2026-04-18 09:38 | -25.22073 | 34.12069 | 32899 ft | 503 kts | 59° |
| 2026-04-18 09:38 | -25.19025 | 34.19064 | 32902 ft | 502 kts | 59° |
| 2026-04-18 09:39 | -25.15982 | 34.26031 | 32903 ft | 502 kts | 60° |
| 2026-04-18 09:39 | -25.12942 | 34.32980 | 32910 ft | 503 kts | 60° |
| 2026-04-18 09:40 | -25.09892 | 34.39941 | 32916 ft | 504 kts | 60° |
| 2026-04-18 09:40 | -25.06847 | 34.46881 | 32913 ft | 502 kts | 60° |
| 2026-04-18 09:41 | -25.03802 | 34.53811 | 32918 ft | 502 kts | 60° |
| 2026-04-18 09:41 | -25.00737 | 34.60773 | 32924 ft | 504 kts | 60° |
| 2026-04-18 09:42 | -24.97676 | 34.67716 | 32911 ft | 503 kts | 60° |
| 2026-04-18 09:42 | -24.94596 | 34.74689 | 32915 ft | 503 kts | 60° |
| 2026-04-18 09:43 | -24.91511 | 34.81663 | 32917 ft | 505 kts | 60° |
| 2026-04-18 09:43 | -24.88429 | 34.88619 | 32925 ft | 504 kts | 60° |
| 2026-04-18 09:44 | -24.85338 | 34.95589 | 32925 ft | 506 kts | 60° |
| 2026-04-18 09:44 | -24.82237 | 35.02567 | 32923 ft | 505 kts | 60° |
| 2026-04-18 09:45 | -24.79138 | 35.09527 | 32926 ft | 504 kts | 61° |
| 2026-04-18 09:45 | -24.76045 | 35.16467 | 32925 ft | 504 kts | 61° |
| 2026-04-18 09:46 | -24.72957 | 35.23386 | 32932 ft | 504 kts | 60° |
| 2026-04-18 09:46 | -24.69840 | 35.30357 | 32936 ft | 503 kts | 61° |
| 2026-04-18 09:47 | -24.66741 | 35.37275 | 32935 ft | 503 kts | 61° |
| 2026-04-18 09:47 | -24.63646 | 35.44178 | 32938 ft | 503 kts | 61° |
| 2026-04-18 09:48 | -24.60545 | 35.51080 | 32936 ft | 504 kts | 61° |
| 2026-04-18 09:48 | -24.57448 | 35.57967 | 32937 ft | 503 kts | 61° |
| 2026-04-18 09:49 | -24.54357 | 35.64827 | 32934 ft | 504 kts | 61° |
| 2026-04-18 09:49 | -24.51259 | 35.71695 | 32931 ft | 504 kts | 61° |
| 2026-04-18 09:50 | -24.48130 | 35.78618 | 32936 ft | 503 kts | 61° |
| 2026-04-18 09:50 | -24.45015 | 35.85501 | 32939 ft | 503 kts | 61° |
| 2026-04-18 09:51 | -24.41887 | 35.92403 | 32941 ft | 503 kts | 61° |
| 2026-04-18 09:51 | -24.38764 | 35.99284 | 32940 ft | 504 kts | 61° |
| 2026-04-18 09:52 | -24.35634 | 36.06170 | 32945 ft | 502 kts | 61° |
| 2026-04-18 09:52 | -24.32533 | 36.12982 | 32947 ft | 502 kts | 61° |
| 2026-04-18 09:53 | -24.29397 | 36.19860 | 32947 ft | 503 kts | 61° |
| 2026-04-18 09:53 | -24.26271 | 36.26705 | 32949 ft | 502 kts | 61° |
| 2026-04-18 09:54 | -24.23159 | 36.33510 | 32947 ft | 502 kts | 61° |
| 2026-04-18 09:54 | -24.20020 | 36.40365 | 32946 ft | 503 kts | 62° |
| 2026-04-18 09:55 | -24.16894 | 36.47182 | 32949 ft | 503 kts | 61° |
| 2026-04-18 09:55 | -24.13743 | 36.54044 | 32948 ft | 502 kts | 62° |
| 2026-04-18 09:56 | -24.10620 | 36.60833 | 32949 ft | 503 kts | 62° |
| 2026-04-18 09:56 | -24.07466 | 36.67681 | 32946 ft | 503 kts | 61° |
| 2026-04-18 09:57 | -24.04304 | 36.74538 | 32951 ft | 504 kts | 61° |
| 2026-04-18 09:57 | -24.01150 | 36.81401 | 32955 ft | 505 kts | 62° |
| 2026-04-18 09:58 | -23.97996 | 36.88251 | 32960 ft | 502 kts | 62° |
| 2026-04-18 09:58 | -23.94858 | 36.95061 | 32959 ft | 501 kts | 62° |
| 2026-04-18 09:59 | -23.91724 | 37.01847 | 32965 ft | 502 kts | 62° |
| 2026-04-18 10:00 | -23.87009 | 37.12043 | 32963 ft | 502 kts | 62° |
| 2026-04-18 10:00 | -23.83871 | 37.18816 | 32964 ft | 502 kts | 62° |
| 2026-04-18 10:01 | -23.80706 | 37.25638 | 32964 ft | 503 kts | 62° |
| 2026-04-18 10:01 | -23.77562 | 37.32406 | 32956 ft | 501 kts | 62° |
| 2026-04-18 10:02 | -23.74401 | 37.39197 | 32957 ft | 501 kts | 62° |
| 2026-04-18 10:02 | -23.71256 | 37.45946 | 32962 ft | 501 kts | 62° |
| 2026-04-18 10:03 | -23.68091 | 37.52730 | 32963 ft | 500 kts | 62° |
| 2026-04-18 10:03 | -23.64938 | 37.59475 | 32964 ft | 500 kts | 62° |
| 2026-04-18 10:04 | -23.61781 | 37.66224 | 32961 ft | 500 kts | 62° |
| 2026-04-18 10:04 | -23.58633 | 37.72941 | 32960 ft | 500 kts | 62° |
| 2026-04-18 10:05 | -23.55480 | 37.79660 | 32963 ft | 499 kts | 62° |
| 2026-04-18 10:05 | -23.52307 | 37.86411 | 32963 ft | 499 kts | 62° |
| 2026-04-18 10:06 | -23.49146 | 37.93131 | 32962 ft | 499 kts | 62° |
| 2026-04-18 10:06 | -23.45982 | 37.99843 | 32957 ft | 499 kts | 62° |
| 2026-04-18 10:07 | -23.42811 | 38.06564 | 32954 ft | 499 kts | 62° |
| 2026-04-18 10:07 | -23.39638 | 38.13277 | 32950 ft | 499 kts | 62° |
| 2026-04-18 10:08 | -23.36466 | 38.19981 | 32949 ft | 498 kts | 62° |
| 2026-04-18 10:08 | -23.33295 | 38.26673 | 32949 ft | 497 kts | 62° |
| 2026-04-18 10:09 | -23.30108 | 38.33390 | 32950 ft | 498 kts | 62° |
| 2026-04-18 10:09 | -23.26953 | 38.40032 | 32949 ft | 497 kts | 62° |
| 2026-04-18 10:10 | -23.23772 | 38.46717 | 32949 ft | 497 kts | 62° |
| 2026-04-18 10:10 | -23.20592 | 38.53391 | 32948 ft | 497 kts | 62° |
| 2026-04-18 10:11 | -23.17412 | 38.60055 | 32949 ft | 497 kts | 62° |
| 2026-04-18 10:11 | -23.14229 | 38.66718 | 32946 ft | 498 kts | 62° |
| 2026-04-18 10:12 | -23.11045 | 38.73375 | 32945 ft | 497 kts | 62° |
| 2026-04-18 10:12 | -23.07852 | 38.80039 | 32945 ft | 497 kts | 62° |
| 2026-04-18 10:13 | -23.04672 | 38.86669 | 32945 ft | 497 kts | 62° |
| 2026-04-18 10:13 | -23.01483 | 38.93308 | 32946 ft | 496 kts | 62° |
| 2026-04-18 10:14 | -22.98285 | 38.99958 | 32947 ft | 494 kts | 62° |
| 2026-04-18 10:14 | -22.95095 | 39.06582 | 32948 ft | 495 kts | 62° |
| 2026-04-18 10:15 | -22.91907 | 39.13192 | 32947 ft | 495 kts | 62° |
| 2026-04-18 10:15 | -22.88704 | 39.19827 | 32945 ft | 495 kts | 62° |
| 2026-04-18 10:16 | -22.85513 | 39.26424 | 32946 ft | 497 kts | 62° |
| 2026-04-18 10:16 | -22.82292 | 39.33077 | 32947 ft | 496 kts | 62° |
| 2026-04-18 10:17 | -22.79089 | 39.39683 | 32947 ft | 496 kts | 62° |
| 2026-04-18 10:17 | -22.75885 | 39.46283 | 32948 ft | 496 kts | 62° |
| 2026-04-18 10:18 | -22.72689 | 39.52859 | 32947 ft | 495 kts | 62° |
| 2026-04-18 10:18 | -22.69485 | 39.59441 | 32949 ft | 494 kts | 62° |
| 2026-04-18 10:19 | -22.66277 | 39.66023 | 32950 ft | 495 kts | 62° |
| 2026-04-18 10:19 | -22.63055 | 39.72626 | 32951 ft | 495 kts | 62° |
| 2026-04-18 10:20 | -22.59843 | 39.79198 | 32952 ft | 496 kts | 62° |
| 2026-04-18 10:20 | -22.56624 | 39.85778 | 32957 ft | 497 kts | 62° |
| 2026-04-18 10:21 | -22.53367 | 39.92425 | 32958 ft | 497 kts | 62° |
| 2026-04-18 10:21 | -22.50142 | 39.99000 | 32964 ft | 496 kts | 62° |
| 2026-04-18 10:22 | -22.46921 | 40.05558 | 32954 ft | 494 kts | 62° |
| 2026-04-18 10:22 | -22.43694 | 40.12123 | 32943 ft | 492 kts | 62° |
| 2026-04-18 10:23 | -22.40484 | 40.18646 | 32942 ft | 492 kts | 62° |
| 2026-04-18 10:23 | -22.37273 | 40.25160 | 32946 ft | 494 kts | 62° |
| 2026-04-18 10:24 | -22.34039 | 40.31711 | 32946 ft | 494 kts | 62° |
| 2026-04-18 10:24 | -22.30811 | 40.38244 | 32948 ft | 493 kts | 62° |
| 2026-04-18 10:25 | -22.27591 | 40.44752 | 32950 ft | 493 kts | 62° |
| 2026-04-18 10:25 | -22.24371 | 40.51251 | 32948 ft | 491 kts | 62° |
| 2026-04-18 10:26 | -22.21169 | 40.57705 | 32954 ft | 491 kts | 62° |
| 2026-04-18 10:26 | -22.17929 | 40.64230 | 32961 ft | 491 kts | 62° |
| 2026-04-18 10:27 | -22.14705 | 40.70708 | 32962 ft | 492 kts | 62° |
| 2026-04-18 10:27 | -22.11473 | 40.77195 | 32967 ft | 493 kts | 62° |
| 2026-04-18 10:28 | -22.08214 | 40.83728 | 32965 ft | 494 kts | 62° |
| 2026-04-18 10:28 | -22.04974 | 40.90217 | 32967 ft | 492 kts | 62° |
| 2026-04-18 10:29 | -22.01720 | 40.96722 | 32961 ft | 492 kts | 62° |
| 2026-04-18 10:29 | -21.98491 | 41.03171 | 32954 ft | 491 kts | 62° |
| 2026-04-18 10:30 | -21.95265 | 41.09606 | 32947 ft | 489 kts | 62° |
| 2026-04-18 10:30 | -21.92028 | 41.16055 | 32948 ft | 491 kts | 62° |
| 2026-04-18 10:31 | -21.88787 | 41.22505 | 32946 ft | 491 kts | 62° |
| 2026-04-18 10:31 | -21.85521 | 41.28995 | 32947 ft | 493 kts | 62° |
| 2026-04-18 10:32 | -21.82261 | 41.35466 | 32945 ft | 493 kts | 62° |
| 2026-04-18 10:32 | -21.79000 | 41.41930 | 32946 ft | 493 kts | 62° |
| 2026-04-18 10:33 | -21.75726 | 41.48414 | 32947 ft | 493 kts | 62° |
| 2026-04-18 10:33 | -21.72462 | 41.54869 | 32947 ft | 492 kts | 63° |
| 2026-04-18 10:34 | -21.69185 | 41.61342 | 32947 ft | 492 kts | 63° |
| 2026-04-18 10:34 | -21.65898 | 41.67825 | 32944 ft | 492 kts | 62° |
| 2026-04-18 10:35 | -21.62613 | 41.74299 | 32945 ft | 492 kts | 62° |
| 2026-04-18 10:35 | -21.59340 | 41.80739 | 32945 ft | 493 kts | 62° |
| 2026-04-18 10:36 | -21.56061 | 41.87185 | 32945 ft | 493 kts | 62° |
| 2026-04-18 10:36 | -21.52774 | 41.93638 | 32947 ft | 493 kts | 62° |
| 2026-04-18 10:37 | -21.49482 | 42.00094 | 32945 ft | 494 kts | 62° |
| 2026-04-18 10:37 | -21.46197 | 42.06528 | 32947 ft | 493 kts | 62° |
| 2026-04-18 10:38 | -21.42907 | 42.12964 | 32945 ft | 492 kts | 62° |
| 2026-04-18 10:38 | -21.39587 | 42.19450 | 32949 ft | 492 kts | 62° |
| 2026-04-18 10:39 | -21.36310 | 42.25844 | 32948 ft | 492 kts | 63° |
| 2026-04-18 10:39 | -21.33017 | 42.32264 | 32948 ft | 493 kts | 63° |
| 2026-04-18 10:40 | -21.29707 | 42.38707 | 32947 ft | 493 kts | 63° |
| 2026-04-18 10:40 | -21.26392 | 42.45153 | 32945 ft | 493 kts | 63° |
| 2026-04-18 10:41 | -21.23070 | 42.51606 | 32947 ft | 493 kts | 63° |
| 2026-04-18 10:41 | -21.19751 | 42.58043 | 32949 ft | 493 kts | 62° |
| 2026-04-18 10:42 | -21.16437 | 42.64465 | 32946 ft | 494 kts | 62° |
| 2026-04-18 10:42 | -21.13091 | 42.70940 | 32945 ft | 494 kts | 62° |
| 2026-04-18 10:43 | -21.09770 | 42.77360 | 32945 ft | 493 kts | 62° |
| 2026-04-18 10:43 | -21.06437 | 42.83795 | 32945 ft | 493 kts | 62° |
| 2026-04-18 10:44 | -21.03117 | 42.90198 | 32949 ft | 494 kts | 62° |
| 2026-04-18 10:44 | -20.99768 | 42.96648 | 32947 ft | 495 kts | 62° |
| 2026-04-18 10:45 | -20.96437 | 43.03058 | 32950 ft | 494 kts | 62° |
| 2026-04-18 10:45 | -20.93076 | 43.09517 | 32952 ft | 493 kts | 62° |
| 2026-04-18 10:46 | -20.89730 | 43.15939 | 32950 ft | 494 kts | 62° |
| 2026-04-18 10:46 | -20.86396 | 43.22332 | 32948 ft | 494 kts | 62° |
| 2026-04-18 10:47 | -20.83018 | 43.28801 | 32948 ft | 494 kts | 62° |
| 2026-04-18 10:47 | -20.79682 | 43.35181 | 32947 ft | 494 kts | 62° |
| 2026-04-18 10:48 | -20.76296 | 43.41651 | 32946 ft | 495 kts | 62° |
| 2026-04-18 10:48 | -20.72932 | 43.48070 | 32947 ft | 496 kts | 62° |
| 2026-04-18 10:49 | -20.69556 | 43.54505 | 32947 ft | 495 kts | 62° |
| 2026-04-18 10:49 | -20.66155 | 43.60982 | 32946 ft | 496 kts | 62° |
| 2026-04-18 10:50 | -20.62785 | 43.67392 | 32944 ft | 495 kts | 62° |
| 2026-04-18 10:50 | -20.59389 | 43.73843 | 32947 ft | 496 kts | 62° |
| 2026-04-18 10:51 | -20.56007 | 43.80259 | 32941 ft | 496 kts | 62° |
| 2026-04-18 10:51 | -20.52609 | 43.86699 | 32938 ft | 496 kts | 62° |
| 2026-04-18 10:52 | -20.49213 | 43.93128 | 32941 ft | 496 kts | 62° |
| 2026-04-18 10:52 | -20.45823 | 43.99538 | 32936 ft | 498 kts | 62° |
| 2026-04-18 10:53 | -20.42393 | 44.06019 | 32940 ft | 497 kts | 62° |
| 2026-04-18 10:53 | -20.39000 | 44.12419 | 32937 ft | 496 kts | 62° |
| 2026-04-18 10:54 | -20.35579 | 44.18866 | 32939 ft | 496 kts | 62° |
| 2026-04-18 10:54 | -20.32153 | 44.25314 | 32936 ft | 498 kts | 62° |
| 2026-04-18 10:55 | -20.28739 | 44.31744 | 32938 ft | 497 kts | 63° |
| 2026-04-18 10:55 | -20.25730 | 44.38387 | 32934 ft | 495 kts | 66° |
| 2026-04-18 10:56 | -20.22766 | 44.44975 | 32939 ft | 495 kts | 66° |
| 2026-04-18 10:56 | -20.19763 | 44.51629 | 32937 ft | 495 kts | 66° |
| 2026-04-18 10:57 | -20.16763 | 44.58261 | 32932 ft | 495 kts | 66° |
| 2026-04-18 10:57 | -20.13756 | 44.64901 | 32938 ft | 495 kts | 66° |
| 2026-04-18 10:58 | -20.10754 | 44.71520 | 32936 ft | 496 kts | 66° |
| 2026-04-18 10:58 | -20.07733 | 44.78174 | 32937 ft | 497 kts | 65° |
| 2026-04-18 10:59 | -20.04692 | 44.84861 | 32938 ft | 497 kts | 66° |
| 2026-04-18 10:59 | -20.01689 | 44.91459 | 32950 ft | 496 kts | 66° |
| 2026-04-18 11:00 | -19.98646 | 44.98136 | 32971 ft | 496 kts | 66° |
| 2026-04-18 11:00 | -19.95637 | 45.04734 | 32978 ft | 496 kts | 66° |
| 2026-04-18 11:01 | -19.92591 | 45.11402 | 32990 ft | 497 kts | 66° |
| 2026-04-18 11:01 | -19.89567 | 45.18015 | 32991 ft | 497 kts | 66° |
| 2026-04-18 11:02 | -19.85008 | 45.27969 | 32986 ft | 499 kts | 66° |
| 2026-04-18 11:02 | -19.81977 | 45.34578 | 32970 ft | 498 kts | 66° |
| 2026-04-18 11:03 | -19.78920 | 45.41235 | 32966 ft | 499 kts | 66° |
| 2026-04-18 11:03 | -19.75868 | 45.47873 | 32964 ft | 499 kts | 66° |
| 2026-04-18 11:04 | -19.72825 | 45.54483 | 32974 ft | 499 kts | 66° |
| 2026-04-18 11:04 | -19.69760 | 45.61135 | 32980 ft | 499 kts | 66° |
| 2026-04-18 11:05 | -19.68235 | 45.64442 | 32372 ft | 499 kts | 66° |
| 2026-04-18 11:05 | -19.66694 | 45.67778 | 31794 ft | 495 kts | 66° |
| 2026-04-18 11:05 | -19.65183 | 45.71050 | 31228 ft | 491 kts | 66° |
| 2026-04-18 11:05 | -19.63693 | 45.74275 | 30676 ft | 487 kts | 66° |
| 2026-04-18 11:06 | -19.62204 | 45.77497 | 30120 ft | 484 kts | 66° |
| 2026-04-18 11:06 | -19.60715 | 45.80715 | 29567 ft | 480 kts | 66° |
| 2026-04-18 11:06 | -19.59257 | 45.83866 | 29015 ft | 476 kts | 66° |
| 2026-04-18 11:06 | -19.57803 | 45.87007 | 28463 ft | 472 kts | 66° |
| 2026-04-18 11:07 | -19.56349 | 45.90146 | 27908 ft | 469 kts | 66° |
| 2026-04-18 11:07 | -19.54930 | 45.93209 | 27370 ft | 465 kts | 66° |
| 2026-04-18 11:07 | -19.53506 | 45.96279 | 26821 ft | 461 kts | 65° |
| 2026-04-18 11:07 | -19.52095 | 45.99319 | 26271 ft | 457 kts | 65° |
| 2026-04-18 11:08 | -19.50697 | 46.02330 | 25723 ft | 453 kts | 65° |
| 2026-04-18 11:08 | -19.49298 | 46.05344 | 25172 ft | 449 kts | 65° |
| 2026-04-18 11:08 | -19.47916 | 46.08315 | 24625 ft | 446 kts | 65° |
| 2026-04-18 11:08 | -19.46561 | 46.11229 | 24083 ft | 442 kts | 65° |
| 2026-04-18 11:09 | -19.45207 | 46.14142 | 23527 ft | 438 kts | 64° |
| 2026-04-18 11:09 | -19.43861 | 46.17032 | 22969 ft | 434 kts | 64° |
| 2026-04-18 11:09 | -19.42525 | 46.19900 | 22383 ft | 430 kts | 64° |
| 2026-04-18 11:09 | -19.41211 | 46.22720 | 21877 ft | 425 kts | 64° |
| 2026-04-18 11:10 | -19.39905 | 46.25522 | 21370 ft | 420 kts | 64° |
| 2026-04-18 11:10 | -19.38606 | 46.28306 | 20865 ft | 415 kts | 64° |
| 2026-04-18 11:10 | -19.37342 | 46.31015 | 20367 ft | 411 kts | 64° |
| 2026-04-18 11:10 | -19.36079 | 46.33720 | 19870 ft | 406 kts | 64° |
| 2026-04-18 11:11 | -19.34825 | 46.36404 | 19371 ft | 402 kts | 64° |
| 2026-04-18 11:11 | -19.33595 | 46.39038 | 18885 ft | 398 kts | 64° |
| 2026-04-18 11:11 | -19.32365 | 46.41668 | 18388 ft | 394 kts | 64° |
| 2026-04-18 11:11 | -19.31158 | 46.44250 | 17901 ft | 390 kts | 64° |
| 2026-04-18 11:12 | -19.29961 | 46.46806 | 17417 ft | 387 kts | 64° |
| 2026-04-18 11:12 | -19.28763 | 46.49366 | 16928 ft | 383 kts | 64° |
| 2026-04-18 11:12 | -19.27595 | 46.51859 | 16444 ft | 380 kts | 64° |
| 2026-04-18 11:12 | -19.26428 | 46.54351 | 15959 ft | 377 kts | 64° |
| 2026-04-18 11:13 | -19.25259 | 46.56844 | 15480 ft | 373 kts | 64° |
| 2026-04-18 11:13 | -19.24102 | 46.59303 | 15001 ft | 370 kts | 63° |
| 2026-04-18 11:13 | -19.22959 | 46.61727 | 14519 ft | 368 kts | 63° |
| 2026-04-18 11:13 | -19.21812 | 46.64157 | 14032 ft | 365 kts | 63° |
| 2026-04-18 11:14 | -19.20683 | 46.66550 | 13550 ft | 362 kts | 63° |
| 2026-04-18 11:14 | -19.19569 | 46.68910 | 13076 ft | 360 kts | 62° |
| 2026-04-18 11:14 | -19.18455 | 46.71270 | 12591 ft | 357 kts | 62° |
| 2026-04-18 11:14 | -19.17337 | 46.73636 | 12105 ft | 355 kts | 62° |
| 2026-04-18 11:15 | -19.16244 | 46.75946 | 11625 ft | 353 kts | 62° |
| 2026-04-18 11:15 | -19.15151 | 46.78256 | 11133 ft | 351 kts | 63° |
| 2026-04-18 11:15 | -19.14065 | 46.80553 | 10639 ft | 349 kts | 63° |
| 2026-04-18 11:15 | -19.12977 | 46.82853 | 10143 ft | 347 kts | 62° |
| 2026-04-18 11:16 | -19.11896 | 46.85133 | 9646 ft | 345 kts | 62° |
| 2026-04-18 11:16 | -19.10838 | 46.87369 | 9161 ft | 343 kts | 62° |
| 2026-04-18 11:16 | -19.09764 | 46.89635 | 8658 ft | 341 kts | 62° |
| 2026-04-18 11:16 | -19.08709 | 46.91862 | 8161 ft | 339 kts | 62° |
| 2026-04-18 11:17 | -19.07650 | 46.94096 | 7660 ft | 337 kts | 62° |
| 2026-04-18 11:17 | -19.06596 | 46.96315 | 7158 ft | 335 kts | 63° |
| 2026-04-18 11:17 | -19.05578 | 46.98462 | 7004 ft | 322 kts | 62° |
| 2026-04-18 11:17 | -19.04598 | 47.00529 | 6994 ft | 305 kts | 62° |
| 2026-04-18 11:18 | -19.03672 | 47.02480 | 6992 ft | 289 kts | 62° |
| 2026-04-18 11:18 | -19.02788 | 47.04343 | 6988 ft | 273 kts | 62° |
| 2026-04-18 11:18 | -19.01954 | 47.06099 | 6993 ft | 258 kts | 62° |
| 2026-04-18 11:18 | -19.01171 | 47.07747 | 6996 ft | 243 kts | 62° |
| 2026-04-18 11:19 | -19.00267 | 47.09158 | 7031 ft | 222 kts | 38° |
| 2026-04-18 11:19 | -18.99029 | 47.09969 | 7047 ft | 200 kts | 28° |
| 2026-04-18 11:19 | -18.97849 | 47.10656 | 7015 ft | 187 kts | 27° |
| 2026-04-18 11:19 | -18.96679 | 47.11317 | 7026 ft | 195 kts | 26° |
| 2026-04-18 11:20 | -18.95456 | 47.11989 | 7011 ft | 199 kts | 27° |
| 2026-04-18 11:20 | -18.94214 | 47.12661 | 7013 ft | 198 kts | 26° |
| 2026-04-18 11:20 | -18.92970 | 47.13327 | 7021 ft | 199 kts | 26° |
| 2026-04-18 11:20 | -18.91725 | 47.13991 | 7018 ft | 198 kts | 26° |
| 2026-04-18 11:21 | -18.90492 | 47.14645 | 7015 ft | 198 kts | 26° |
| 2026-04-18 11:21 | -18.89270 | 47.15293 | 7018 ft | 199 kts | 25° |
| 2026-04-18 11:21 | -18.88011 | 47.15959 | 7012 ft | 199 kts | 26° |
| 2026-04-18 11:21 | -18.86782 | 47.16608 | 7005 ft | 198 kts | 26° |
| 2026-04-18 11:22 | -18.85541 | 47.17264 | 6979 ft | 198 kts | 26° |
| 2026-04-18 11:22 | -18.84314 | 47.17911 | 6980 ft | 198 kts | 27° |
| 2026-04-18 11:22 | -18.83072 | 47.18567 | 6980 ft | 197 kts | 27° |
| 2026-04-18 11:22 | -18.81837 | 47.19220 | 6978 ft | 198 kts | 25° |
| 2026-04-18 11:23 | -18.80605 | 47.19868 | 6981 ft | 198 kts | 26° |
| 2026-04-18 11:23 | -18.79381 | 47.20515 | 6986 ft | 186 kts | 26° |
| 2026-04-18 11:23 | -18.78309 | 47.21081 | 6927 ft | 157 kts | 26° |
| 2026-04-18 11:23 | -18.77363 | 47.21579 | 7014 ft | 155 kts | 27° |
| 2026-04-18 11:24 | -18.76543 | 47.22305 | 7132 ft | 165 kts | 58° |
| 2026-04-18 11:24 | -18.76106 | 47.23449 | 7189 ft | 172 kts | 87° |
| 2026-04-18 11:24 | -18.76274 | 47.24691 | 7331 ft | 171 kts | 105° |
| 2026-04-18 11:24 | -18.76535 | 47.25880 | 7496 ft | 165 kts | 101° |
| 2026-04-18 11:25 | -18.76723 | 47.27081 | 7493 ft | 162 kts | 95° |
| 2026-04-18 11:25 | -18.76854 | 47.28292 | 7028 ft | 169 kts | 94° |
| 2026-04-18 11:25 | -18.76985 | 47.29491 | 6693 ft | 164 kts | 95° |
| 2026-04-18 11:25 | -18.77126 | 47.30688 | 6579 ft | 165 kts | 96° |
| 2026-04-18 11:26 | -18.77247 | 47.31901 | 7008 ft | 166 kts | 93° |
| 2026-04-18 11:26 | -18.77387 | 47.33157 | 6793 ft | 175 kts | 97° |
| 2026-04-18 11:26 | -18.77597 | 47.34399 | 6557 ft | 170 kts | 98° |
| 2026-04-18 11:26 | -18.77792 | 47.35631 | 6385 ft | 174 kts | 99° |
| 2026-04-18 11:27 | -18.77991 | 47.36879 | 6530 ft | 174 kts | 99° |
| 2026-04-18 11:27 | -18.78171 | 47.38164 | 6527 ft | 178 kts | 96° |
| 2026-04-18 11:27 | -18.78392 | 47.39444 | 6522 ft | 176 kts | 103° |
| 2026-04-18 11:27 | -18.78575 | 47.40701 | 6516 ft | 169 kts | 94° |
| 2026-04-18 11:28 | -18.78699 | 47.41920 | 6534 ft | 166 kts | 95° |
| 2026-04-18 11:28 | -18.78820 | 47.43120 | 6533 ft | 165 kts | 94° |
| 2026-04-18 11:28 | -18.78939 | 47.44321 | 6542 ft | 163 kts | 95° |
| 2026-04-18 11:28 | -18.79168 | 47.45493 | 6446 ft | 168 kts | 117° |
| 2026-04-18 11:29 | -18.80042 | 47.46274 | 6262 ft | 173 kts | 167° |
| 2026-04-18 11:29 | -18.81257 | 47.46264 | 6178 ft | 171 kts | 189° |
| 2026-04-18 11:29 | -18.82307 | 47.45722 | 6061 ft | 173 kts | 223° |
| 2026-04-18 11:29 | -18.83001 | 47.44729 | 6076 ft | 165 kts | 255° |
| 2026-04-18 11:30 | -18.82944 | 47.43544 | 5971 ft | 167 kts | 301° |
| 2026-04-18 11:30 | -18.82130 | 47.42755 | 5900 ft | 163 kts | 340° |
| 2026-04-18 11:30 | -18.81014 | 47.42604 | 5852 ft | 161 kts | 9° |
| 2026-04-18 11:30 | -18.79956 | 47.42996 | 5666 ft | 166 kts | 41° |
| 2026-04-18 11:31 | -18.79436 | 47.44095 | 5350 ft | 177 kts | 74° |
| 2026-04-18 11:31 | -18.79306 | 47.45390 | 4822 ft | 192 kts | 100° |
| 2026-04-18 11:31 | -18.79597 | 47.46724 | 5041 ft | 176 kts | 110° |
| 2026-04-18 11:31 | -18.80483 | 47.47450 | 5350 ft | 173 kts | 173° |
| 2026-04-18 11:32 | -18.81728 | 47.47441 | 5268 ft | 176 kts | 193° |
| 2026-04-18 11:32 | -18.82897 | 47.47126 | 5327 ft | 169 kts | 201° |
| 2026-04-18 11:32 | -18.83707 | 47.46326 | 5389 ft | 165 kts | 248° |
| 2026-04-18 11:32 | -18.83947 | 47.45130 | 5467 ft | 164 kts | 276° |
| 2026-04-18 11:33 | -18.83557 | 47.43989 | 5463 ft | 170 kts | 311° |
| 2026-04-18 11:33 | -18.82632 | 47.43281 | 5446 ft | 165 kts | 343° |
| 2026-04-18 11:33 | -18.81473 | 47.43263 | 5107 ft | 176 kts | 12° |
| 2026-04-18 11:33 | -18.80303 | 47.43655 | 4915 ft | 175 kts | 25° |
| 2026-04-18 11:34 | -18.79529 | 47.44553 | 4646 ft | 176 kts | 73° |
| 2026-04-18 11:34 | -18.79373 | 47.45822 | 4390 ft | 175 kts | 99° |
| 2026-04-18 11:34 | -18.79567 | 47.47002 | 4196 ft | 151 kts | 99° |
| 2026-04-18 11:34 | -18.79689 | 47.47845 | 4171 ft | 76 kts | 101° |
| 2026-04-18 11:35 | -18.79736 | 47.48166 | 4169 ft | 17 kts | 98° |
| 2026-04-18 11:35 | -18.79750 | 47.48268 | 4168 ft | 19 kts | 98° |
| 2026-04-18 11:35 | -18.79796 | 47.48439 | 4166 ft | 16 kts | 128° |
| 2026-04-18 11:35 | -18.79804 | 47.48470 | 4166 ft | 4 kts | 53° |
| 2026-04-18 11:36 | -18.79770 | 47.48433 | 4165 ft | 14 kts | 278° |
| 2026-04-18 11:36 | -18.79752 | 47.48278 | 4168 ft | 27 kts | 277° |
| 2026-04-18 11:36 | -18.79756 | 47.48145 | 4171 ft | 10 kts | 218° |
| 2026-04-18 11:36 | -18.79810 | 47.48114 | 4173 ft | 10 kts | 200° |
| 2026-04-18 11:37 | -18.79877 | 47.48075 | 4175 ft | 7 kts | 238° |
| 2026-04-18 11:37 | -18.79890 | 47.48013 | 4176 ft | 2 kts | 255° |
| 2026-04-18 11:37 | -18.79905 | 47.47996 | 4176 ft | 5 kts | 213° |
| 2026-04-18 11:37 | -18.79942 | 47.47994 | 4178 ft | 2 kts | 172° |
| 2026-04-18 11:38 | -18.79952 | 47.47994 | 4178 ft | 2 kts | 181° |
| 2026-04-18 11:38 | -18.79976 | 47.47992 | 4179 ft | 5 kts | 187° |
| 2026-04-18 11:38 | -18.80005 | 47.47987 | 4180 ft | 0 kts | 188° |